createdAt,value
2018-04-08T00:00:06.666Z,59.84
2018-04-08T00:01:06.644Z,60.13
2018-04-08T00:02:06.639Z,59.65
2018-04-08T00:03:06.614Z,59.75
2018-04-08T00:04:06.604Z,59.94
2018-04-08T00:05:06.610Z,59.75
2018-04-08T00:06:06.577Z,59.75
2018-04-08T00:07:06.586Z,59.55
2018-04-08T00:08:06.553Z,59.65
2018-04-08T00:09:06.542Z,59.84
2018-04-08T00:10:06.528Z,59.65
2018-04-08T00:11:06.559Z,59.65
2018-04-08T00:12:06.520Z,59.75
2018-04-08T00:13:06.496Z,59.75
2018-04-08T00:14:06.491Z,59.36
2018-04-08T00:15:06.473Z,59.55
2018-04-08T00:16:06.471Z,59.94
2018-04-08T00:17:06.446Z,59.94
2018-04-08T00:18:06.433Z,59.65
2018-04-08T00:19:06.430Z,59.65
2018-04-08T00:20:06.412Z,60.70
2018-04-08T00:21:06.414Z,60.70
2018-04-08T00:22:06.420Z,60.38
2018-04-08T00:23:06.390Z,60.61
2018-04-08T00:24:06.382Z,61.25
2018-04-08T00:25:06.347Z,61.25
2018-04-08T00:26:06.337Z,61.05
2018-04-08T00:27:06.325Z,61.05
2018-04-08T00:28:06.343Z,61.15
2018-04-08T00:29:06.330Z,61.91
2018-04-08T00:30:06.290Z,61.25
2018-04-08T00:31:06.279Z,61.91
2018-04-08T00:32:06.287Z,62.20
2018-04-08T00:33:06.256Z,61.54
2018-04-08T00:34:06.254Z,61.63
2018-04-08T00:35:06.233Z,61.15
2018-04-08T00:36:06.217Z,61.05
2018-04-08T00:37:06.205Z,60.96
2018-04-08T00:38:06.191Z,60.58
2018-04-08T00:39:06.189Z,60.58
2018-04-08T00:40:06.174Z,60.48
2018-04-08T00:41:06.157Z,61.05
2018-04-08T00:42:06.153Z,60.77
2018-04-08T00:43:06.135Z,60.67
2018-04-08T00:44:06.122Z,60.58
2018-04-08T00:45:06.118Z,61.91
2018-04-08T00:46:06.099Z,61.98
2018-04-08T00:47:06.083Z,62.08
2018-04-08T00:48:06.070Z,62.46
2018-04-08T00:49:06.073Z,62.94
2018-04-08T00:50:06.044Z,62.74
2018-04-08T00:51:06.032Z,62.94
2018-04-08T00:52:06.040Z,63.23
2018-04-08T00:53:06.006Z,63.89
2018-04-08T00:54:05.996Z,63.76
2018-04-08T00:55:05.990Z,63.51
2018-04-08T00:56:05.971Z,64.53
2018-04-08T00:57:05.983Z,64.15
2018-04-08T00:58:05.944Z,64.05
2018-04-08T00:59:05.929Z,63.86
2018-04-08T01:00:05.923Z,64.25
2018-04-08T01:01:05.913Z,64.15
2018-04-08T01:02:05.929Z,64.15
2018-04-08T01:03:05.891Z,63.39
2018-04-08T01:04:05.882Z,64.05
2018-04-08T01:05:05.865Z,63.96
2018-04-08T01:06:05.845Z,63.67
2018-04-08T01:07:05.832Z,63.03
2018-04-08T01:08:05.841Z,63.23
2018-04-08T01:09:05.816Z,62.65
2018-04-08T01:10:05.810Z,61.98
2018-04-08T01:11:05.788Z,61.88
2018-04-08T01:12:05.773Z,61.02
2018-04-08T01:13:05.812Z,60.96
2018-04-08T01:14:05.744Z,60.77
2018-04-08T01:15:05.746Z,60.58
2018-04-08T01:16:05.718Z,60.67
2018-04-08T01:17:05.708Z,60.58
2018-04-08T01:18:05.833Z,60.77
2018-04-08T01:19:05.698Z,60.96
2018-04-08T01:20:05.690Z,60.86
2018-04-08T01:21:05.666Z,61.22
2018-04-08T01:22:05.643Z,61.69
2018-04-08T01:23:05.632Z,61.79
2018-04-08T01:24:05.630Z,61.60
2018-04-08T01:25:05.621Z,61.31
2018-04-08T01:26:05.595Z,61.12
2018-04-08T01:27:05.584Z,60.74
2018-04-08T01:28:05.587Z,61.12
2018-04-08T01:29:05.554Z,60.93
2018-04-08T01:30:05.573Z,62.08
2018-04-08T01:31:05.530Z,61.31
2018-04-08T01:32:05.509Z,61.79
2018-04-08T01:33:05.504Z,61.79
2018-04-08T01:34:05.490Z,61.88
2018-04-08T01:35:05.476Z,62.27
2018-04-08T01:36:05.483Z,62.65
2018-04-08T01:37:05.444Z,62.55
2018-04-08T01:38:05.435Z,62.74
2018-04-08T01:39:05.450Z,62.94
2018-04-08T01:40:05.424Z,62.84
2018-04-08T01:41:05.404Z,62.65
2018-04-08T01:42:05.408Z,62.37
2018-04-08T01:43:05.378Z,62.74
2018-04-08T01:44:05.364Z,62.17
2018-04-08T01:45:05.347Z,61.69
2018-04-08T01:46:05.340Z,62.17
2018-04-08T01:47:05.362Z,62.08
2018-04-08T01:48:05.310Z,61.41
2018-04-08T01:49:05.304Z,61.22
2018-04-08T01:50:05.289Z,61.12
2018-04-08T01:51:05.277Z,61.02
2018-04-08T01:52:05.264Z,61.02
2018-04-08T01:53:05.264Z,60.83
2018-04-08T01:54:05.243Z,60.93
2018-04-08T01:55:05.226Z,60.93
2018-04-08T01:56:05.210Z,61.02
2018-04-08T01:57:05.200Z,61.12
2018-04-08T01:58:05.198Z,61.02
2018-04-08T01:59:05.207Z,61.02
2018-04-08T02:00:05.165Z,60.93
2018-04-08T02:01:05.140Z,61.02
2018-04-08T02:02:05.134Z,60.74
2018-04-08T02:03:05.133Z,60.93
2018-04-08T02:04:05.110Z,60.74
2018-04-08T02:05:05.110Z,60.64
2018-04-08T02:06:05.085Z,60.55
2018-04-08T02:07:05.066Z,60.55
2018-04-08T02:08:05.063Z,60.74
2018-04-08T02:09:05.045Z,60.74
2018-04-08T02:10:05.045Z,60.64
2018-04-08T02:11:05.015Z,60.64
2018-04-08T02:12:05.007Z,61.12
2018-04-08T02:13:04.994Z,61.88
2018-04-08T02:14:04.986Z,61.88
2018-04-08T02:15:04.990Z,61.51
2018-04-08T02:16:04.955Z,61.69
2018-04-08T02:17:04.942Z,61.88
2018-04-08T02:18:04.933Z,61.88
2018-04-08T02:19:04.926Z,62.08
2018-04-08T02:20:04.920Z,62.74
2018-04-08T02:21:04.894Z,63.42
2018-04-08T02:22:04.883Z,62.84
2018-04-08T02:23:04.869Z,63.03
2018-04-08T02:24:04.860Z,63.10
2018-04-08T02:25:04.860Z,63.00
2018-04-08T02:26:04.837Z,63.00
2018-04-08T02:27:04.821Z,62.71
2018-04-08T02:28:04.802Z,62.74
2018-04-08T02:29:04.789Z,62.37
2018-04-08T02:30:04.778Z,63.32
2018-04-08T02:31:04.780Z,62.74
2018-04-08T02:32:04.749Z,63.13
2018-04-08T02:33:04.742Z,62.74
2018-04-08T02:34:04.730Z,62.94
2018-04-08T02:35:04.712Z,62.55
2018-04-08T02:36:04.719Z,63.23
2018-04-08T02:37:04.707Z,63.32
2018-04-08T02:38:04.673Z,63.42
2018-04-08T02:39:04.665Z,63.51
2018-04-08T02:40:04.663Z,63.70
2018-04-08T02:41:04.637Z,62.84
2018-04-08T02:42:04.640Z,62.08
2018-04-08T02:43:04.610Z,62.17
2018-04-08T02:44:04.601Z,62.08
2018-04-08T02:45:04.586Z,62.08
2018-04-08T02:46:04.572Z,62.08
2018-04-08T02:47:04.578Z,62.65
2018-04-08T02:48:04.552Z,62.55
2018-04-08T02:49:04.534Z,62.17
2018-04-08T02:50:04.535Z,61.98
2018-04-08T02:51:04.506Z,61.88
2018-04-08T02:52:04.521Z,62.17
2018-04-08T02:53:04.479Z,62.74
2018-04-08T02:54:04.474Z,62.17
2018-04-08T02:55:04.457Z,62.08
2018-04-08T02:56:04.452Z,62.17
2018-04-08T02:57:04.468Z,61.60
2018-04-08T02:58:04.421Z,61.60
2018-04-08T02:59:04.406Z,61.31
2018-04-08T03:00:04.400Z,61.60
2018-04-08T03:01:04.385Z,61.41
2018-04-08T03:02:04.368Z,61.79
2018-04-08T03:03:04.373Z,61.41
2018-04-08T03:04:04.345Z,61.69
2018-04-08T03:05:04.331Z,61.41
2018-04-08T03:06:04.327Z,61.69
2018-04-08T03:07:04.308Z,61.41
2018-04-08T03:08:04.317Z,61.31
2018-04-08T03:09:04.300Z,61.41
2018-04-08T03:10:04.271Z,61.60
2018-04-08T03:11:04.253Z,61.51
2018-04-08T03:12:04.240Z,61.79
2018-04-08T03:13:04.226Z,61.69
2018-04-08T03:14:04.218Z,61.69
2018-04-08T03:15:04.219Z,61.98
2018-04-08T03:16:04.191Z,61.79
2018-04-08T03:17:04.172Z,62.17
2018-04-08T03:18:04.262Z,61.41
2018-04-08T03:19:04.150Z,61.41
2018-04-08T03:20:04.155Z,61.79
2018-04-08T03:21:04.126Z,61.69
2018-04-08T03:22:04.116Z,61.51
2018-04-08T03:23:04.093Z,61.98
2018-04-08T03:24:04.085Z,62.08
2018-04-08T03:25:04.103Z,61.69
2018-04-08T03:26:04.059Z,62.08
2018-04-08T03:27:04.049Z,61.79
2018-04-08T03:28:04.058Z,61.79
2018-04-08T03:29:04.022Z,61.79
2018-04-08T03:30:04.018Z,62.08
2018-04-08T03:31:04.032Z,62.08
2018-04-08T03:32:04.001Z,62.08
2018-04-08T03:33:03.971Z,61.51
2018-04-08T03:34:03.963Z,61.41
2018-04-08T03:35:03.957Z,61.79
2018-04-08T03:36:03.934Z,61.31
2018-04-08T03:37:03.939Z,61.31
2018-04-08T03:38:03.907Z,61.79
2018-04-08T03:39:03.891Z,61.60
2018-04-08T03:40:03.888Z,61.60
2018-04-08T03:41:03.879Z,61.41
2018-04-08T03:42:03.868Z,61.69
2018-04-08T03:43:03.849Z,62.17
2018-04-08T03:44:03.827Z,62.17
2018-04-08T03:45:03.820Z,61.79
2018-04-08T03:46:03.808Z,62.08
2018-04-08T03:47:03.827Z,62.08
2018-04-08T03:48:03.774Z,62.17
2018-04-08T03:49:03.764Z,61.98
2018-04-08T03:50:03.754Z,61.98
2018-04-08T03:51:03.739Z,62.17
2018-04-08T03:52:03.726Z,62.27
2018-04-08T03:53:03.741Z,61.88
2018-04-08T03:54:03.702Z,62.37
2018-04-08T03:55:03.686Z,62.37
2018-04-08T03:56:03.676Z,62.74
2018-04-08T03:57:03.664Z,62.84
2018-04-08T03:58:03.651Z,62.33
2018-04-08T03:59:03.654Z,62.55
2018-04-08T04:00:03.622Z,62.62
2018-04-08T04:01:03.606Z,63.10
2018-04-08T04:02:03.596Z,62.43
2018-04-08T04:03:03.587Z,62.81
2018-04-08T04:04:03.587Z,62.52
2018-04-08T04:05:03.564Z,63.00
2018-04-08T04:06:03.546Z,63.39
2018-04-08T04:07:03.533Z,63.39
2018-04-08T04:08:03.530Z,63.57
2018-04-08T04:09:03.520Z,63.48
2018-04-08T04:10:03.532Z,63.67
2018-04-08T04:11:03.475Z,64.05
2018-04-08T04:12:03.462Z,63.96
2018-04-08T04:13:03.446Z,64.34
2018-04-08T04:14:03.437Z,64.25
2018-04-08T04:15:03.427Z,65.17
2018-04-08T04:16:03.430Z,65.84
2018-04-08T04:17:03.427Z,65.93
2018-04-08T04:18:03.385Z,65.93
2018-04-08T04:19:03.370Z,65.36
2018-04-08T04:20:03.357Z,66.13
2018-04-08T04:21:03.348Z,65.84
2018-04-08T04:22:03.327Z,66.41
2018-04-08T04:23:03.330Z,66.70
2018-04-08T04:24:03.300Z,66.22
2018-04-08T04:25:03.284Z,66.22
2018-04-08T04:26:03.295Z,66.89
2018-04-08T04:27:03.312Z,66.56
2018-04-08T04:28:03.250Z,67.52
2018-04-08T04:29:03.237Z,66.76
2018-04-08T04:30:03.232Z,67.52
2018-04-08T04:31:03.208Z,67.24
2018-04-08T04:32:03.206Z,67.24
2018-04-08T04:33:03.199Z,67.81
2018-04-08T04:34:03.171Z,67.62
2018-04-08T04:35:03.151Z,67.52
2018-04-08T04:36:03.144Z,67.62
2018-04-08T04:37:03.131Z,66.85
2018-04-08T04:38:03.553Z,67.65
2018-04-08T04:39:03.106Z,67.52
2018-04-08T04:40:03.097Z,68.57
2018-04-08T04:41:03.078Z,67.81
2018-04-08T04:42:03.068Z,67.81
2018-04-08T04:43:03.072Z,68.48
2018-04-08T04:44:03.035Z,68.29
2018-04-08T04:45:03.023Z,68.86
2018-04-08T04:46:03.011Z,69.53
2018-04-08T04:47:02.994Z,69.49
2018-04-08T04:48:03.013Z,70.16
2018-04-08T04:49:02.966Z,70.54
2018-04-08T04:50:02.956Z,71.50
2018-04-08T04:51:02.954Z,71.31
2018-04-08T04:52:02.932Z,71.69
2018-04-08T04:53:02.914Z,71.69
2018-04-08T04:54:02.984Z,72.07
2018-04-08T04:55:02.890Z,72.55
2018-04-08T04:56:02.874Z,72.99
2018-04-08T04:57:02.855Z,72.42
2018-04-08T04:58:02.842Z,73.22
2018-04-08T04:59:02.845Z,73.08
2018-04-08T05:00:02.819Z,73.85
2018-04-08T05:01:02.812Z,73.75
2018-04-08T05:02:02.795Z,73.66
2018-04-08T05:03:02.777Z,73.37
2018-04-08T05:04:02.778Z,73.56
2018-04-08T05:05:02.748Z,73.66
2018-04-08T05:06:02.742Z,74.13
2018-04-08T05:07:02.743Z,73.56
2018-04-08T05:08:02.707Z,73.56
2018-04-08T05:09:02.693Z,73.94
2018-04-08T05:10:02.697Z,74.04
2018-04-08T05:11:02.666Z,74.52
2018-04-08T05:12:02.651Z,74.61
2018-04-08T05:13:02.631Z,74.52
2018-04-08T05:14:02.648Z,74.80
2018-04-08T05:15:02.608Z,74.42
2018-04-08T05:16:02.596Z,74.61
2018-04-08T05:17:02.577Z,73.66
2018-04-08T05:18:02.564Z,73.08
2018-04-08T05:19:02.555Z,73.85
2018-04-08T05:20:02.557Z,73.85
2018-04-08T05:21:02.526Z,72.36
2018-04-08T05:22:02.511Z,72.45
2018-04-08T05:23:02.523Z,71.88
2018-04-08T05:24:02.504Z,72.07
2018-04-08T05:25:02.469Z,71.21
2018-04-08T05:26:02.453Z,71.88
2018-04-08T05:27:02.463Z,71.69
2018-04-08T05:28:02.425Z,72.17
2018-04-08T05:29:02.407Z,72.17
2018-04-08T05:30:02.421Z,71.88
2018-04-08T05:31:02.379Z,72.07
2018-04-08T05:32:02.385Z,72.36
2018-04-08T05:33:02.372Z,71.41
2018-04-08T05:34:02.342Z,70.54
2018-04-08T05:35:02.325Z,71.31
2018-04-08T05:36:02.328Z,71.98
2018-04-08T05:37:02.331Z,71.88
2018-04-08T05:38:02.285Z,71.59
2018-04-08T05:39:02.274Z,70.77
2018-04-08T05:40:02.261Z,70.73
2018-04-08T05:41:02.302Z,69.78
2018-04-08T05:42:02.229Z,69.05
2018-04-08T05:43:02.236Z,67.81
2018-04-08T05:44:02.205Z,67.33
2018-04-08T05:45:02.204Z,67.05
2018-04-08T05:46:02.188Z,67.24
2018-04-08T05:47:02.162Z,67.14
2018-04-08T05:48:02.166Z,65.93
2018-04-08T05:49:02.130Z,67.94
2018-04-08T05:50:02.174Z,66.31
2018-04-08T05:51:02.105Z,66.60
2018-04-08T05:52:02.094Z,66.41
2018-04-08T05:53:02.077Z,65.74
2018-04-08T05:54:02.064Z,64.78
2018-04-08T05:55:02.052Z,65.64
2018-04-08T05:56:02.055Z,65.64
2018-04-08T05:57:02.028Z,64.88
2018-04-08T05:58:02.086Z,64.12
2018-04-08T05:59:02.008Z,64.50
2018-04-08T06:00:01.988Z,63.76
2018-04-08T06:01:01.971Z,62.81
2018-04-08T06:02:01.969Z,62.04
2018-04-08T06:03:01.942Z,62.04
2018-04-08T06:04:01.932Z,61.47
2018-04-08T06:05:01.914Z,61.02
2018-04-08T06:06:01.902Z,60.93
2018-04-08T06:07:01.905Z,61.02
2018-04-08T06:08:01.894Z,60.74
2018-04-08T06:09:01.860Z,60.55
2018-04-08T06:10:01.847Z,60.35
2018-04-08T06:11:01.854Z,59.88
2018-04-08T06:12:02.537Z,59.78
2018-04-08T06:13:01.803Z,58.54
2018-04-08T06:14:01.789Z,58.83
2018-04-08T06:15:01.784Z,58.73
2018-04-08T06:16:01.784Z,58.95
2018-04-08T06:17:01.797Z,58.76
2018-04-08T06:18:01.743Z,58.86
2018-04-08T06:19:01.750Z,58.86
2018-04-08T06:20:01.719Z,58.47
2018-04-08T06:21:01.708Z,58.09
2018-04-08T06:22:01.709Z,58.18
2018-04-08T06:23:01.677Z,57.32
2018-04-08T06:24:01.680Z,57.32
2018-04-08T06:25:01.652Z,57.13
2018-04-08T06:26:01.636Z,57.13
2018-04-08T06:27:01.641Z,57.13
2018-04-08T06:28:01.610Z,56.84
2018-04-08T06:29:01.614Z,57.04
2018-04-08T06:30:01.598Z,57.04
2018-04-08T06:31:01.572Z,56.84
2018-04-08T06:32:01.570Z,57.26
2018-04-08T06:33:01.543Z,56.77
2018-04-08T06:34:01.530Z,56.59
2018-04-08T06:35:01.553Z,56.39
2018-04-08T06:36:01.517Z,56.49
2018-04-08T06:37:01.495Z,56.39
2018-04-08T06:38:01.485Z,56.39
2018-04-08T06:39:01.472Z,56.97
2018-04-08T06:40:01.457Z,56.77
2018-04-08T06:41:01.465Z,56.20
2018-04-08T06:42:01.434Z,56.10
2018-04-08T06:43:01.431Z,55.82
2018-04-08T06:44:01.408Z,56.01
2018-04-08T06:45:01.389Z,56.01
2018-04-08T06:46:01.417Z,56.10
2018-04-08T06:47:01.370Z,55.91
2018-04-08T06:48:01.360Z,55.44
2018-04-08T06:49:01.343Z,55.44
2018-04-08T06:50:01.331Z,56.20
2018-04-08T06:51:01.319Z,56.10
2018-04-08T06:52:22.321Z,55.82
2018-04-08T06:53:01.301Z,56.39
2018-04-08T06:54:01.282Z,56.39
2018-04-08T06:55:01.305Z,56.87
2018-04-08T06:56:01.260Z,57.16
2018-04-08T06:57:01.244Z,57.16
2018-04-08T06:58:01.234Z,57.16
2018-04-08T06:59:01.218Z,56.71
2018-04-08T07:00:01.209Z,56.97
2018-04-08T07:01:01.213Z,57.38
2018-04-08T07:02:01.181Z,57.64
2018-04-08T07:03:01.186Z,57.06
2018-04-08T07:04:01.164Z,56.99
2018-04-08T07:05:01.146Z,56.81
2018-04-08T07:06:01.133Z,56.71
2018-04-08T07:07:01.152Z,56.61
2018-04-08T07:08:01.107Z,56.42
2018-04-08T07:09:01.096Z,55.85
2018-04-08T07:10:01.090Z,55.56
2018-04-08T07:11:01.074Z,55.46
2018-04-08T07:12:01.101Z,55.18
2018-04-08T07:13:01.062Z,54.79
2018-04-08T07:14:01.058Z,54.44
2018-04-08T07:15:01.026Z,54.34
2018-04-08T07:16:01.008Z,53.96
2018-04-08T07:17:01.007Z,53.48
2018-04-08T07:18:01.001Z,53.67
2018-04-08T07:19:00.992Z,53.77
2018-04-08T07:20:00.966Z,53.67
2018-04-08T07:21:00.958Z,53.58
2018-04-08T07:22:00.950Z,53.28
2018-04-08T07:23:00.946Z,53.00
2018-04-08T07:24:00.921Z,53.19
2018-04-08T07:25:00.908Z,52.93
2018-04-08T07:26:00.907Z,53.12
2018-04-08T07:27:00.886Z,53.41
2018-04-08T07:28:00.909Z,53.03
2018-04-08T07:29:00.859Z,53.22
2018-04-08T07:30:00.851Z,53.12
2018-04-08T07:31:00.841Z,52.93
2018-04-08T07:32:00.829Z,53.22
2018-04-08T07:33:00.814Z,52.93
2018-04-08T07:34:00.819Z,52.28
2018-04-08T07:35:00.792Z,52.55
2018-04-08T07:36:00.780Z,52.26
2018-04-08T07:37:00.778Z,52.57
2018-04-08T07:38:00.762Z,52.45
2018-04-08T07:39:00.772Z,53.03
2018-04-08T07:40:00.740Z,53.15
2018-04-08T07:41:00.730Z,52.48
2018-04-08T07:42:00.712Z,52.86
2018-04-08T07:43:00.702Z,52.19
2018-04-08T07:44:00.712Z,52.28
2018-04-08T07:45:00.681Z,52.00
2018-04-08T07:46:00.671Z,52.09
2018-04-08T07:47:00.659Z,52.00
2018-04-08T07:48:00.649Z,51.61
2018-04-08T07:49:00.654Z,51.23
2018-04-08T07:50:00.671Z,51.81
2018-04-08T07:51:21.628Z,51.81
2018-04-08T07:52:00.626Z,51.71
2018-04-08T07:53:00.592Z,51.42
2018-04-08T07:54:00.587Z,50.84
2018-04-08T07:55:00.574Z,50.94
2018-04-08T07:56:00.799Z,50.84
2018-04-08T07:57:00.575Z,50.84
2018-04-08T07:58:00.543Z,51.51
2018-04-08T07:59:00.533Z,51.71
2018-04-08T08:00:00.523Z,51.90
2018-04-08T08:01:00.509Z,52.19
2018-04-08T08:02:00.520Z,52.00
2018-04-08T08:03:00.499Z,52.09
2018-04-08T08:04:00.479Z,52.28
2018-04-08T08:05:00.471Z,51.61
2018-04-08T08:06:00.457Z,51.81
2018-04-08T08:07:00.460Z,51.90
2018-04-08T08:08:00.469Z,52.22
2018-04-08T08:09:00.428Z,52.50
2018-04-08T08:10:00.410Z,53.15
2018-04-08T08:11:00.399Z,53.15
2018-04-08T08:12:00.389Z,52.95
2018-04-08T08:13:00.386Z,54.01
2018-04-08T08:14:00.388Z,53.44
2018-04-08T08:15:00.368Z,53.82
2018-04-08T08:16:00.351Z,54.11
2018-04-08T08:17:00.342Z,54.11
2018-04-08T08:18:00.333Z,54.42
2018-04-08T08:19:00.344Z,54.52
2018-04-08T08:20:00.321Z,54.30
2018-04-08T08:21:00.320Z,54.78
2018-04-08T08:22:00.665Z,54.49
2018-04-08T08:23:00.308Z,54.30
2018-04-08T08:24:00.304Z,53.91
2018-04-08T08:25:00.257Z,54.78
2018-04-08T08:26:00.244Z,55.07
2018-04-08T08:27:00.238Z,55.26
2018-04-08T08:28:00.226Z,55.67
2018-04-08T08:29:00.212Z,55.29
2018-04-08T08:30:00.241Z,55.19
2018-04-08T08:31:00.200Z,54.13
2018-04-08T08:32:00.289Z,53.94
2018-04-08T08:33:00.179Z,54.04
2018-04-08T08:34:00.163Z,54.04
2018-04-08T08:35:00.152Z,53.66
2018-04-08T08:36:00.168Z,53.08
2018-04-08T08:37:00.149Z,53.17
2018-04-08T08:38:00.127Z,52.98
2018-04-08T08:39:00.118Z,53.75
2018-04-08T08:40:00.101Z,53.27
2018-04-08T08:41:00.091Z,53.66
2018-04-08T08:42:00.099Z,53.85
2018-04-08T08:43:00.068Z,53.58
2018-04-08T08:44:00.058Z,53.03
2018-04-08T08:45:00.053Z,52.08
2018-04-08T08:46:00.041Z,51.59
2018-04-08T08:47:00.064Z,50.56
2018-04-08T08:48:00.022Z,50.37
2018-04-08T08:49:00.012Z,50.85
2018-04-08T08:50:00.003Z,49.91
2018-04-08T08:50:59.992Z,49.05
2018-04-08T08:51:59.979Z,49.24
2018-04-08T08:53:00.010Z,49.33
2018-04-08T08:53:59.964Z,49.33
2018-04-08T08:54:59.988Z,48.76
2018-04-08T08:55:59.945Z,48.49
2018-04-08T08:56:59.933Z,48.57
2018-04-08T08:57:59.924Z,48.30
2018-04-08T08:58:59.932Z,47.31
2018-04-08T08:59:59.906Z,46.77
2018-04-08T09:00:59.897Z,46.47
2018-04-08T09:01:59.892Z,46.57
2018-04-08T09:02:59.909Z,46.38
2018-04-08T09:03:59.878Z,46.06
2018-04-08T09:04:59.858Z,46.64
2018-04-08T09:05:59.849Z,46.45
2018-04-08T09:06:59.840Z,47.03
2018-04-08T09:07:59.830Z,46.93
2018-04-08T09:08:59.857Z,47.22
2018-04-08T09:09:59.829Z,47.39
2018-04-08T09:10:59.805Z,47.61
2018-04-08T09:11:59.797Z,47.89
2018-04-08T09:12:59.791Z,48.08
2018-04-08T09:13:59.794Z,48.57
2018-04-08T09:14:59.775Z,48.57
2018-04-08T09:15:59.802Z,48.08
2018-04-08T09:16:59.759Z,48.08
2018-04-08T09:17:59.740Z,47.61
2018-04-08T09:18:59.734Z,48.08
2018-04-08T09:19:59.724Z,48.18
2018-04-08T09:20:59.715Z,48.18
2018-04-08T09:22:20.725Z,47.53
2018-04-08T09:22:59.697Z,46.47
2018-04-08T09:23:59.693Z,46.86
2018-04-08T09:24:59.678Z,47.53
2018-04-08T09:25:59.668Z,47.24
2018-04-08T09:26:59.675Z,46.31
2018-04-08T09:27:59.654Z,46.59
2018-04-08T09:28:59.643Z,46.28
2018-04-08T09:29:59.634Z,46.88
2018-04-08T09:30:59.624Z,47.15
2018-04-08T09:31:59.632Z,47.63
2018-04-08T09:32:59.625Z,47.03
2018-04-08T09:33:59.600Z,47.44
2018-04-08T09:34:59.593Z,47.05
2018-04-08T09:35:59.580Z,47.44
2018-04-08T09:36:59.573Z,47.31
2018-04-08T09:37:59.581Z,47.31
2018-04-08T09:38:59.559Z,46.38
2018-04-08T09:39:59.551Z,46.67
2018-04-08T09:40:59.538Z,46.57
2018-04-08T09:41:59.531Z,46.28
2018-04-08T09:42:59.551Z,46.47
2018-04-08T09:43:59.519Z,47.05
2018-04-08T09:44:59.508Z,47.05
2018-04-08T09:45:59.499Z,46.77
2018-04-08T09:46:59.490Z,46.67
2018-04-08T09:47:59.482Z,46.38
2018-04-08T09:48:59.501Z,46.19
2018-04-08T09:49:59.464Z,46.01
2018-04-08T09:50:59.466Z,45.17
2018-04-08T09:51:59.451Z,44.40
2018-04-08T09:52:59.443Z,43.82
2018-04-08T09:53:59.447Z,44.69
2018-04-08T09:54:59.456Z,44.69
2018-04-08T09:55:59.415Z,44.49
2018-04-08T09:56:59.409Z,44.57
2018-04-08T09:57:59.403Z,44.59
2018-04-08T09:58:59.408Z,44.67
2018-04-08T09:59:59.402Z,44.40
2018-04-08T10:00:59.376Z,44.21
2018-04-08T10:01:59.371Z,44.38
2018-04-08T10:02:59.363Z,44.49
2018-04-08T10:03:59.360Z,44.49
2018-04-08T10:04:59.360Z,44.49
2018-04-08T10:05:59.372Z,44.76
2018-04-08T10:06:59.335Z,44.86
2018-04-08T10:07:59.320Z,45.63
2018-04-08T10:08:59.319Z,45.27
2018-04-08T10:09:59.311Z,45.25
2018-04-08T10:10:59.301Z,45.17
2018-04-08T10:11:59.352Z,45.27
2018-04-08T10:12:59.300Z,44.69
2018-04-08T10:13:59.279Z,44.40
2018-04-08T10:14:59.277Z,44.40
2018-04-08T10:15:59.265Z,44.79
2018-04-08T10:16:59.294Z,44.59
2018-04-08T10:17:59.244Z,44.38
2018-04-08T10:18:59.240Z,44.67
2018-04-08T10:19:59.234Z,45.15
2018-04-08T10:20:59.224Z,44.96
2018-04-08T10:21:59.217Z,45.15
2018-04-08T10:22:59.229Z,45.44
2018-04-08T10:23:59.203Z,45.53
2018-04-08T10:24:59.227Z,46.31
2018-04-08T10:25:59.185Z,46.57
2018-04-08T10:26:59.175Z,46.19
2018-04-08T10:27:59.169Z,46.69
2018-04-08T10:28:59.175Z,46.47
2018-04-08T10:29:59.154Z,46.98
2018-04-08T10:30:59.158Z,47.17
2018-04-08T10:31:59.137Z,47.56
2018-04-08T10:32:59.132Z,46.78
2018-04-08T10:33:59.122Z,47.08
2018-04-08T10:34:59.132Z,47.17
2018-04-08T10:35:59.107Z,46.78
2018-04-08T10:36:59.096Z,46.88
2018-04-08T10:37:59.096Z,46.69
2018-04-08T10:38:59.079Z,46.50
2018-04-08T10:39:59.098Z,46.21
2018-04-08T10:40:59.064Z,46.04
2018-04-08T10:41:59.053Z,46.33
2018-04-08T10:42:59.061Z,46.33
2018-04-08T10:43:59.041Z,46.23
2018-04-08T10:44:59.033Z,45.75
2018-04-08T10:45:59.024Z,46.25
2018-04-08T10:46:59.029Z,45.10
2018-04-08T10:47:59.009Z,43.31
2018-04-08T10:48:58.997Z,42.66
2018-04-08T10:49:58.990Z,41.63
2018-04-08T10:50:58.981Z,40.57
2018-04-08T10:51:58.991Z,39.72
2018-04-08T10:52:59.000Z,39.26
2018-04-08T10:53:58.962Z,38.12
2018-04-08T10:54:58.954Z,37.09
2018-04-08T10:55:58.951Z,36.41
2018-04-08T10:56:58.940Z,34.69
2018-04-08T10:57:58.935Z,33.91
2018-04-08T10:58:58.945Z,33.06
2018-04-08T10:59:58.923Z,32.49
2018-04-08T11:00:58.922Z,32.91
2018-04-08T11:01:58.915Z,31.77
2018-04-08T11:02:58.913Z,30.80
2018-04-08T11:03:58.925Z,30.02
2018-04-08T11:04:58.965Z,30.50
2018-04-08T11:05:58.896Z,30.85
2018-04-08T11:06:58.900Z,31.53
2018-04-08T11:07:58.893Z,31.34
2018-04-08T11:08:58.893Z,31.89
2018-04-08T11:09:58.906Z,32.39
2018-04-08T11:10:58.890Z,31.84
2018-04-08T11:11:58.884Z,31.57
2018-04-08T11:12:58.884Z,30.51
2018-04-08T11:13:58.881Z,29.36
2018-04-08T11:14:58.893Z,28.79
2018-04-08T11:15:58.887Z,28.22
2018-04-08T11:16:58.906Z,28.90
2018-04-08T11:17:58.878Z,29.49
2018-04-08T11:18:58.878Z,28.88
2018-04-08T11:19:58.877Z,30.38
2018-04-08T11:20:58.891Z,30.65
2018-04-08T11:21:58.891Z,30.95
2018-04-08T11:22:58.880Z,30.90
2018-04-08T11:23:58.881Z,29.94
2018-04-08T11:24:58.877Z,29.08
2018-04-08T11:25:58.894Z,28.72
2018-04-08T11:26:58.878Z,28.33
2018-04-08T11:27:58.894Z,27.94
2018-04-08T11:28:58.880Z,28.00
2018-04-08T11:29:58.881Z,28.49
2018-04-08T11:30:58.894Z,28.28
2018-04-08T11:31:58.913Z,30.38
2018-04-08T11:32:58.880Z,30.63
2018-04-08T11:33:58.884Z,31.18
2018-04-08T11:34:58.897Z,31.63
2018-04-08T11:35:58.878Z,31.43
2018-04-08T11:36:58.881Z,33.07
2018-04-08T11:37:58.914Z,33.76
2018-04-08T11:38:58.875Z,32.89
2018-04-08T11:39:58.874Z,32.79
2018-04-08T11:40:58.871Z,33.49
2018-04-08T11:41:58.872Z,33.67
2018-04-08T11:42:58.869Z,34.05
2018-04-08T11:43:58.901Z,33.76
2018-04-08T11:44:58.866Z,34.13
2018-04-08T11:45:58.864Z,34.04
2018-04-08T11:46:58.861Z,33.86
2018-04-08T11:47:58.864Z,34.81
2018-04-08T11:48:58.858Z,33.47
2018-04-08T11:49:58.884Z,33.76
2018-04-08T11:50:58.849Z,32.89
2018-04-08T11:51:58.843Z,33.47
2018-04-08T11:52:58.847Z,31.52
2018-04-08T11:53:58.843Z,32.70
2018-04-08T11:54:58.840Z,33.67
2018-04-08T11:55:58.866Z,34.15
2018-04-08T11:56:58.830Z,35.31
2018-04-08T11:57:58.823Z,35.91
2018-04-08T11:58:58.823Z,35.72
2018-04-08T11:59:58.818Z,35.23
2018-04-08T12:00:58.814Z,34.67
2018-04-08T12:01:58.874Z,33.70
2018-04-08T12:02:58.807Z,34.19
2018-04-08T12:03:58.811Z,33.12
2018-04-08T12:04:58.798Z,34.09
2018-04-08T12:05:58.809Z,32.64
2018-04-08T12:06:58.804Z,32.81
2018-04-08T12:07:58.817Z,34.67
2018-04-08T12:08:58.802Z,34.38
2018-04-08T12:09:58.782Z,33.89
2018-04-08T12:10:58.779Z,33.69
2018-04-08T12:12:19.788Z,35.05
2018-04-08T12:12:58.767Z,34.69
2018-04-08T12:13:58.764Z,32.57
2018-04-08T12:14:58.810Z,31.52
2018-04-08T12:15:58.760Z,31.65
2018-04-08T12:16:58.751Z,31.94
2018-04-08T12:17:58.766Z,32.62
2018-04-08T12:18:58.779Z,30.68
2018-04-08T12:19:58.747Z,31.87
2018-04-08T12:20:58.744Z,33.06
2018-04-08T12:21:58.738Z,31.82
2018-04-08T12:22:58.738Z,29.69
2018-04-08T12:23:58.735Z,28.61
2018-04-08T12:24:58.754Z,29.36
2018-04-08T12:25:58.731Z,30.40
2018-04-08T12:26:58.738Z,30.73
2018-04-08T12:27:58.732Z,33.51
2018-04-08T12:28:58.728Z,32.54
2018-04-08T12:29:58.748Z,32.34
2018-04-08T12:30:58.738Z,34.20
2018-04-08T12:31:58.728Z,33.06
2018-04-08T12:32:58.722Z,31.62
2018-04-08T12:33:58.723Z,31.13
2018-04-08T12:34:58.734Z,31.82
2018-04-08T12:35:58.753Z,32.54
2018-04-08T12:36:58.716Z,31.58
2018-04-08T12:37:58.728Z,30.40
2018-04-08T12:38:58.710Z,29.80
2018-04-08T12:39:58.712Z,29.21
2018-04-08T12:40:58.712Z,30.07
2018-04-08T12:41:58.726Z,31.21
2018-04-08T12:42:58.707Z,32.67
2018-04-08T12:43:58.707Z,32.37
2018-04-08T12:44:58.704Z,32.46
2018-04-08T12:45:58.703Z,33.54
2018-04-08T12:46:58.732Z,32.57
2018-04-08T12:47:58.700Z,31.50
2018-04-08T12:48:58.693Z,31.99
2018-04-08T12:49:58.690Z,33.18
2018-04-08T12:50:58.696Z,31.84
2018-04-08T12:51:58.724Z,31.00